createdAt,value
2022-08-24T00:01:56.227Z,2.53
2022-08-24T00:04:26.095Z,2.08
2022-08-24T00:06:54.191Z,2.20
2022-08-24T00:09:22.337Z,2.28
2022-08-24T00:11:50.318Z,2.53
2022-08-24T00:14:18.766Z,2.45
2022-08-24T00:16:47.304Z,2.03
2022-08-24T00:19:16.253Z,2.20
2022-08-24T00:21:45.517Z,2.30
2022-08-24T00:24:14.634Z,2.97
2022-08-24T00:26:42.622Z,2.67
2022-08-24T00:29:10.861Z,2.40
2022-08-24T00:31:38.779Z,2.38
2022-08-24T00:34:07.849Z,2.50
2022-08-24T00:36:36.257Z,2.70
2022-08-24T00:39:06.346Z,2.60
2022-08-24T00:41:34.621Z,3.15
2022-08-24T00:44:04.917Z,2.78
2022-08-24T00:46:43.512Z,2.65
2022-08-24T00:49:19.423Z,2.35
2022-08-24T00:51:55.605Z,2.67
2022-08-24T00:54:28.025Z,2.85
2022-08-24T00:57:00.090Z,3.00
2022-08-24T00:59:32.652Z,3.00
2022-08-24T01:02:14.310Z,2.80
2022-08-24T01:07:14.426Z,2.47
2022-08-24T01:09:43.737Z,2.63
2022-08-24T01:12:12.039Z,2.58
2022-08-24T01:14:40.192Z,2.45
2022-08-24T01:17:26.122Z,2.95
2022-08-24T01:19:58.418Z,2.97
2022-08-24T01:22:43.982Z,2.47
2022-08-24T01:27:42.598Z,2.60
2022-08-24T01:30:15.724Z,2.25
2022-08-24T01:32:54.659Z,2.97
2022-08-24T01:35:22.955Z,2.78
2022-08-24T01:37:52.694Z,2.70
2022-08-24T01:40:22.929Z,3.22
2022-08-24T01:42:52.560Z,3.08
2022-08-24T01:45:22.739Z,2.80
2022-08-24T01:47:50.829Z,3.20
2022-08-24T01:50:18.844Z,2.83
2022-08-24T01:53:04.464Z,3.15
2022-08-24T01:55:35.493Z,2.97
2022-08-24T01:58:04.376Z,3.15
2022-08-24T02:00:33.381Z,3.50
2022-08-24T02:03:01.584Z,2.92
2022-08-24T02:05:29.719Z,3.20
2022-08-24T02:07:59.290Z,3.03
2022-08-24T02:10:27.534Z,4.38
2022-08-24T02:12:59.028Z,3.28
2022-08-24T02:15:29.800Z,3.60
2022-08-24T02:17:58.825Z,4.10
2022-08-24T02:20:27.840Z,4.35
2022-08-24T02:22:58.104Z,5.03
2022-08-24T02:25:27.616Z,6.00
2022-08-24T02:27:57.853Z,6.38
2022-08-24T02:30:26.637Z,6.82
2022-08-24T02:32:54.508Z,7.57
2022-08-24T02:35:23.449Z,7.65
2022-08-24T02:37:52.189Z,8.63
2022-08-24T02:40:20.899Z,7.70
2022-08-24T02:42:50.790Z,8.60
2022-08-24T02:45:20.633Z,7.78
2022-08-24T02:47:49.279Z,8.52
2022-08-24T02:50:18.806Z,8.70
2022-08-24T02:52:47.106Z,9.20
2022-08-24T02:55:19.971Z,9.82
2022-08-24T02:57:50.565Z,8.80
2022-08-24T03:00:22.417Z,9.65
2022-08-24T03:02:54.769Z,9.18
2022-08-24T03:05:25.021Z,9.25
2022-08-24T03:07:53.230Z,10.00
2022-08-24T03:10:22.199Z,9.98
2022-08-24T03:12:50.758Z,9.40
2022-08-24T03:15:23.232Z,10.52
2022-08-24T03:17:52.424Z,10.05
2022-08-24T03:20:23.961Z,9.80
2022-08-24T03:22:53.217Z,10.43
2022-08-24T03:25:24.703Z,10.23
2022-08-24T03:27:53.273Z,10.88
2022-08-24T03:30:23.822Z,10.68
2022-08-24T03:32:52.188Z,11.05
2022-08-24T03:35:21.840Z,9.63
2022-08-24T03:37:50.555Z,9.93
2022-08-24T03:40:23.172Z,10.18
2022-08-24T03:42:55.499Z,10.75
2022-08-24T03:45:25.119Z,9.10
2022-08-24T03:47:53.774Z,9.93
2022-08-24T03:50:22.929Z,9.60
2022-08-24T03:52:51.040Z,10.10
2022-08-24T03:55:19.513Z,9.77
2022-08-24T03:57:48.471Z,10.60
2022-08-24T04:00:17.500Z,10.55
2022-08-24T04:02:56.525Z,9.65
2022-08-24T04:05:26.241Z,9.93
2022-08-24T04:07:54.543Z,9.57
2022-08-24T04:10:22.526Z,10.20
2022-08-24T04:12:50.445Z,11.05
2022-08-24T04:15:24.432Z,10.13
2022-08-24T04:17:52.783Z,9.90
2022-08-24T04:20:22.815Z,10.35
2022-08-24T04:22:53.577Z,9.88
2022-08-24T04:25:25.150Z,9.88
2022-08-24T04:27:53.449Z,9.40
2022-08-24T04:30:23.500Z,9.98
2022-08-24T04:33:11.229Z,10.38
2022-08-24T04:35:43.212Z,9.65
2022-08-24T04:38:11.603Z,8.88
2022-08-24T04:40:46.944Z,10.07
2022-08-24T04:43:19.930Z,10.38
2022-08-24T04:45:51.215Z,10.63
2022-08-24T04:48:21.159Z,9.38
2022-08-24T04:50:50.498Z,9.52
2022-08-24T04:53:18.821Z,9.80
2022-08-24T04:55:51.132Z,8.85
2022-08-24T04:58:20.353Z,9.73
2022-08-24T05:00:48.921Z,9.50
2022-08-24T05:03:17.008Z,8.85
2022-08-24T05:05:49.006Z,8.95
2022-08-24T05:08:20.170Z,8.73
2022-08-24T05:10:50.558Z,9.02
2022-08-24T05:13:19.311Z,9.07
2022-08-24T05:15:49.119Z,9.13
2022-08-24T05:18:18.173Z,8.48
2022-08-24T05:20:47.938Z,8.02
2022-08-24T05:23:16.317Z,7.40
2022-08-24T05:25:45.743Z,6.93
2022-08-24T05:28:13.643Z,6.93
2022-08-24T05:30:42.889Z,7.30
2022-08-24T05:33:11.632Z,7.20
2022-08-24T05:35:43.677Z,7.28
2022-08-24T05:38:12.259Z,7.03
2022-08-24T05:40:41.276Z,8.23
2022-08-24T05:43:11.172Z,6.82
2022-08-24T05:45:42.819Z,7.43
2022-08-24T05:48:11.765Z,6.95
2022-08-24T05:51:15.156Z,7.10
2022-08-24T05:53:53.148Z,7.10
2022-08-24T05:56:23.200Z,6.05
2022-08-24T05:58:52.522Z,7.78
2022-08-24T06:01:23.509Z,7.22
2022-08-24T06:03:53.961Z,6.95
2022-08-24T06:06:23.311Z,7.45
2022-08-24T06:08:55.071Z,7.60
2022-08-24T06:11:30.176Z,7.40
2022-08-24T06:14:07.197Z,7.63
2022-08-24T06:16:40.480Z,7.53
2022-08-24T06:19:13.155Z,7.57
2022-08-24T06:21:41.497Z,6.50
2022-08-24T06:24:09.833Z,7.72
2022-08-24T06:26:55.209Z,8.35
2022-08-24T06:29:24.488Z,8.00
2022-08-24T06:31:57.403Z,8.52
2022-08-24T06:34:27.061Z,8.35
2022-08-24T06:36:55.212Z,8.82
2022-08-24T06:39:25.598Z,8.57
2022-08-24T06:41:55.979Z,9.00
2022-08-24T06:44:33.321Z,8.35
2022-08-24T06:47:18.759Z,9.05
2022-08-24T06:49:47.344Z,9.43
2022-08-24T06:52:15.377Z,9.23
2022-08-24T06:54:43.793Z,8.45
2022-08-24T06:57:11.884Z,8.75
2022-08-24T06:59:43.136Z,7.82
2022-08-24T07:02:12.968Z,9.77
2022-08-24T07:04:41.184Z,9.32
2022-08-24T07:07:27.545Z,9.20
2022-08-24T07:09:55.426Z,8.93
2022-08-24T07:12:23.935Z,8.80
2022-08-24T07:14:54.269Z,9.38
2022-08-24T07:17:23.222Z,7.68
2022-08-24T07:19:51.354Z,8.80
2022-08-24T07:22:39.378Z,8.68
2022-08-24T07:25:08.465Z,9.20
2022-08-24T07:27:37.000Z,9.48
2022-08-24T07:30:26.469Z,10.02
2022-08-24T07:32:57.851Z,10.95
2022-08-24T07:35:28.231Z,10.52
2022-08-24T07:37:56.509Z,9.93
2022-08-24T07:40:25.290Z,9.48
2022-08-24T07:42:55.159Z,9.70
2022-08-24T07:45:26.218Z,9.15
2022-08-24T07:47:56.015Z,8.27
2022-08-24T07:50:38.252Z,9.02
2022-08-24T07:53:09.822Z,7.80
2022-08-24T07:55:45.810Z,8.77
2022-08-24T07:58:14.770Z,8.15
2022-08-24T08:00:47.516Z,7.55
2022-08-24T08:03:15.932Z,8.43
2022-08-24T08:05:45.484Z,8.77
2022-08-24T08:08:13.638Z,9.88
2022-08-24T08:10:42.335Z,8.60
2022-08-24T08:13:10.569Z,8.15
2022-08-24T08:15:39.479Z,7.90
2022-08-24T08:18:12.548Z,7.93
2022-08-24T08:20:43.440Z,7.70
2022-08-24T08:23:30.505Z,7.60
2022-08-24T08:26:16.981Z,7.45
2022-08-24T08:29:05.308Z,7.68
2022-08-24T08:31:37.746Z,7.80
2022-08-24T08:34:08.689Z,7.68
2022-08-24T08:36:39.580Z,7.40
2022-08-24T08:39:09.109Z,8.43
2022-08-24T08:42:13.253Z,7.90
2022-08-24T08:47:58.900Z,7.43
2022-08-24T08:50:34.837Z,7.53
2022-08-24T08:53:45.433Z,7.07
2022-08-24T08:56:23.988Z,7.15
2022-08-24T08:59:04.216Z,6.43
2022-08-24T09:01:52.725Z,7.10
2022-08-24T09:05:05.264Z,7.40
2022-08-24T09:07:46.030Z,6.45
2022-08-24T09:10:35.625Z,6.53
2022-08-24T09:13:19.074Z,6.65
2022-08-24T09:16:10.859Z,7.00
2022-08-24T09:18:55.672Z,7.70
2022-08-24T09:21:39.616Z,7.38
2022-08-24T09:24:25.768Z,7.05
2022-08-24T09:27:11.441Z,7.05
2022-08-24T09:29:53.719Z,8.05
2022-08-24T09:32:51.367Z,6.90
2022-08-24T09:35:27.180Z,6.95
2022-08-24T09:38:01.877Z,7.72
2022-08-24T09:40:38.451Z,7.63
2022-08-24T09:43:59.243Z,8.13
2022-08-24T09:47:13.741Z,6.32
2022-08-24T09:50:07.040Z,6.18
2022-08-24T09:53:09.180Z,5.93
2022-08-24T09:56:02.513Z,5.95
2022-08-24T09:58:46.158Z,7.10
2022-08-24T10:01:27.764Z,6.45
2022-08-24T10:04:11.297Z,6.18
2022-08-24T10:09:33.998Z,7.20
2022-08-24T10:12:14.980Z,7.07
2022-08-24T10:14:54.555Z,6.55
2022-08-24T10:17:35.191Z,6.85
2022-08-24T10:20:15.244Z,8.02
2022-08-24T10:23:16.417Z,8.18
2022-08-24T10:25:55.529Z,7.68
2022-08-24T10:28:42.014Z,7.03
2022-08-24T10:31:13.138Z,6.97
2022-08-24T10:33:57.204Z,7.55
2022-08-24T10:36:45.527Z,8.25
2022-08-24T10:39:41.611Z,8.35
2022-08-24T10:42:48.003Z,8.35
2022-08-24T10:45:48.025Z,8.73
2022-08-24T10:48:43.492Z,8.30
2022-08-24T10:51:25.485Z,8.18
2022-08-24T10:53:55.397Z,7.40
2022-08-24T10:56:43.901Z,6.85
2022-08-24T10:59:23.316Z,6.88
2022-08-24T11:02:12.815Z,7.28
2022-08-24T11:04:41.667Z,7.15
2022-08-24T11:07:17.791Z,6.90
2022-08-24T11:09:51.584Z,6.88
2022-08-24T11:12:27.237Z,6.03
2022-08-24T11:14:58.004Z,6.03
2022-08-24T11:17:29.545Z,5.90
2022-08-24T11:19:59.261Z,6.78
2022-08-24T11:22:40.728Z,6.72
2022-08-24T11:25:16.033Z,5.55
2022-08-24T11:27:47.289Z,5.47
2022-08-24T11:30:27.356Z,6.75
2022-08-24T11:32:59.057Z,7.28
2022-08-24T11:35:29.382Z,6.38
2022-08-24T11:38:07.727Z,6.00
2022-08-24T11:40:40.944Z,6.40
2022-08-24T11:43:27.455Z,6.15
2022-08-24T11:46:07.931Z,6.93
2022-08-24T11:48:49.306Z,7.07
2022-08-24T11:51:28.514Z,6.97
2022-08-24T11:54:06.201Z,6.78
2022-08-24T11:56:42.211Z,7.03
2022-08-24T11:59:19.085Z,6.00
2022-08-24T12:01:52.534Z,6.38
2022-08-24T12:04:37.314Z,7.05
2022-08-24T12:07:16.770Z,7.07
2022-08-24T12:09:58.482Z,6.68
2022-08-24T12:12:36.764Z,7.03
2022-08-24T12:15:12.041Z,6.20
2022-08-24T12:17:46.634Z,6.55
2022-08-24T12:20:27.641Z,6.30
2022-08-24T12:23:00.889Z,6.97
2022-08-24T12:25:49.120Z,6.10
2022-08-24T12:28:24.517Z,6.28
2022-08-24T12:30:56.025Z,5.72
2022-08-24T12:33:32.222Z,5.53
2022-08-24T12:36:18.691Z,6.05
2022-08-24T12:38:50.876Z,5.35
2022-08-24T12:41:22.317Z,5.63
2022-08-24T12:43:54.709Z,5.57
2022-08-24T12:46:25.212Z,6.20
2022-08-24T12:48:57.913Z,5.80
2022-08-24T12:51:38.861Z,5.45
2022-08-24T12:54:24.853Z,5.18
2022-08-24T12:57:09.022Z,5.50
2022-08-24T12:59:41.052Z,5.25
2022-08-24T13:02:28.249Z,5.47
2022-08-24T13:05:01.589Z,4.38
2022-08-24T13:07:39.121Z,5.28
2022-08-24T13:10:13.419Z,5.07
2022-08-24T13:13:09.375Z,7.25
2022-08-24T13:16:03.155Z,5.32
2022-08-24T13:18:54.549Z,5.43
2022-08-24T13:21:48.388Z,5.78
2022-08-24T13:24:59.530Z,5.03
2022-08-24T13:28:12.212Z,5.30
2022-08-24T13:31:05.644Z,5.40
2022-08-24T13:33:40.416Z,6.00
2022-08-24T13:36:31.168Z,5.03
2022-08-24T13:39:09.110Z,5.75
2022-08-24T13:42:10.757Z,5.22
2022-08-24T13:44:57.765Z,5.65
2022-08-24T13:47:32.523Z,5.07
2022-08-24T13:50:10.943Z,4.72
2022-08-24T13:52:48.908Z,5.03
2022-08-24T13:55:42.609Z,4.82
2022-08-24T13:58:27.006Z,4.88
2022-08-24T14:01:02.000Z,4.35
2022-08-24T14:04:02.237Z,4.75
2022-08-24T14:06:36.363Z,4.93
2022-08-24T14:09:22.944Z,4.88
2022-08-24T14:12:12.851Z,4.68
2022-08-24T14:14:58.426Z,5.57
2022-08-24T14:17:53.834Z,5.18
2022-08-24T14:20:43.758Z,6.07
2022-08-24T14:23:26.290Z,4.97
2022-08-24T14:26:36.795Z,5.10
2022-08-24T14:29:29.059Z,5.72
2022-08-24T14:32:33.350Z,6.32
2022-08-24T14:35:16.973Z,6.93
2022-08-24T14:37:57.103Z,7.22
2022-08-24T14:40:35.182Z,7.03
2022-08-24T14:43:28.580Z,6.57
2022-08-24T14:46:07.144Z,5.80
2022-08-24T14:48:46.623Z,7.15
2022-08-24T14:51:31.624Z,5.95
2022-08-24T14:54:03.700Z,6.47
2022-08-24T14:56:59.197Z,6.40
2022-08-24T14:59:42.490Z,6.18
2022-08-24T15:02:44.176Z,6.10
2022-08-24T15:05:22.748Z,6.20
2022-08-24T15:07:57.910Z,5.88
2022-08-24T15:10:30.157Z,5.50
2022-08-24T15:13:04.103Z,5.63
2022-08-24T15:15:35.179Z,4.85
2022-08-24T15:18:09.643Z,5.07
2022-08-24T15:20:54.599Z,5.38
2022-08-24T15:23:38.335Z,4.40
2022-08-24T15:26:14.153Z,4.60
2022-08-24T15:28:55.110Z,5.40
2022-08-24T15:31:27.956Z,5.22
2022-08-24T15:33:57.846Z,4.28
2022-08-24T15:36:33.055Z,5.15
2022-08-24T15:39:05.326Z,4.63
2022-08-24T15:41:35.606Z,4.47
2022-08-24T15:44:07.469Z,4.53
2022-08-24T15:46:38.839Z,4.65
2022-08-24T15:49:15.587Z,4.93
2022-08-24T15:51:49.327Z,4.00
2022-08-24T15:54:34.312Z,4.00
2022-08-24T15:57:05.650Z,3.92
2022-08-24T15:59:47.622Z,4.15
2022-08-24T16:02:34.289Z,3.85
2022-08-24T16:05:14.649Z,4.03
2022-08-24T16:08:09.802Z,3.63
2022-08-24T16:10:42.683Z,3.72
2022-08-24T16:13:16.693Z,3.78
2022-08-24T16:15:50.812Z,3.67
2022-08-24T16:18:21.304Z,3.95
2022-08-24T16:20:51.049Z,3.80
2022-08-24T16:23:25.844Z,3.63
2022-08-24T16:26:21.173Z,3.90
2022-08-24T16:28:50.532Z,3.70
2022-08-24T16:31:44.993Z,4.00
2022-08-24T16:34:20.644Z,3.40
2022-08-24T16:36:49.113Z,3.65
2022-08-24T16:39:16.997Z,3.92
2022-08-24T16:41:47.136Z,3.65
2022-08-24T16:44:15.131Z,4.15
2022-08-24T16:46:43.065Z,4.07
2022-08-24T16:51:45.581Z,3.80
2022-08-24T16:54:13.841Z,4.35
2022-08-24T16:56:42.797Z,3.60
2022-08-24T16:59:18.551Z,3.95
2022-08-24T17:01:50.277Z,3.97
2022-08-24T17:04:18.807Z,3.90
2022-08-24T17:06:48.027Z,4.30
2022-08-24T17:09:18.372Z,4.25
2022-08-24T17:11:47.018Z,4.32
2022-08-24T17:14:16.646Z,3.80
2022-08-24T17:16:44.780Z,4.00
2022-08-24T17:19:15.584Z,4.05
2022-08-24T17:21:45.595Z,3.90
2022-08-24T17:24:13.794Z,4.45
2022-08-24T17:26:48.443Z,3.80
2022-08-24T17:29:19.504Z,4.05
2022-08-24T17:31:49.847Z,3.80
2022-08-24T17:34:20.429Z,4.25
2022-08-24T17:36:50.244Z,3.53
2022-08-24T17:39:19.268Z,3.97
2022-08-24T17:41:47.669Z,3.92
2022-08-24T17:44:23.625Z,4.30
2022-08-24T17:46:53.190Z,4.00
2022-08-24T17:49:21.485Z,4.53
2022-08-24T17:51:50.070Z,4.38
2022-08-24T17:54:18.376Z,4.53
2022-08-24T17:56:48.839Z,3.95
2022-08-24T17:59:23.540Z,4.88
2022-08-24T18:01:54.870Z,3.83
2022-08-24T18:04:27.631Z,3.63
2022-08-24T18:06:56.794Z,3.58
2022-08-24T18:09:30.900Z,3.58
2022-08-24T18:12:03.479Z,3.97
2022-08-24T18:14:32.635Z,3.78
2022-08-24T18:17:05.351Z,4.05
2022-08-24T18:19:34.962Z,3.90
2022-08-24T18:22:03.930Z,3.88
2022-08-24T18:24:32.767Z,3.72
2022-08-24T18:27:01.714Z,4.10
2022-08-24T18:29:31.376Z,3.63
2022-08-24T18:32:03.814Z,3.40
2022-08-24T18:34:31.942Z,4.18
2022-08-24T18:36:59.825Z,4.05
2022-08-24T18:39:27.867Z,4.07
2022-08-24T18:41:58.753Z,4.60
2022-08-24T18:44:31.647Z,4.72
2022-08-24T18:49:30.197Z,4.45
2022-08-24T18:51:59.125Z,4.80
2022-08-24T18:54:32.588Z,4.93
2022-08-24T18:57:00.442Z,4.95
2022-08-24T18:59:28.444Z,5.10
2022-08-24T19:02:15.223Z,5.15
2022-08-24T19:04:47.279Z,4.72
2022-08-24T19:07:15.620Z,4.53
2022-08-24T19:09:43.794Z,5.25
2022-08-24T19:12:12.143Z,5.22
2022-08-24T19:14:43.410Z,5.25
2022-08-24T19:17:14.742Z,5.18
2022-08-24T19:19:45.743Z,5.60
2022-08-24T19:22:14.447Z,5.82
2022-08-24T19:24:43.633Z,5.32
2022-08-24T19:27:11.575Z,5.25
2022-08-24T19:29:55.275Z,5.47
2022-08-24T19:32:29.371Z,4.90
2022-08-24T19:35:00.379Z,5.25
2022-08-24T19:37:28.364Z,5.22
2022-08-24T19:39:57.585Z,4.60
2022-08-24T19:42:27.376Z,4.70
2022-08-24T19:45:13.003Z,4.70
2022-08-24T19:47:41.101Z,4.45
2022-08-24T19:50:11.954Z,5.13
2022-08-24T19:52:40.683Z,4.47
2022-08-24T19:55:10.697Z,4.78
2022-08-24T19:57:51.337Z,4.95
2022-08-24T20:00:29.243Z,5.25
2022-08-24T20:02:58.495Z,5.32
2022-08-24T20:05:29.372Z,5.60
2022-08-24T20:07:57.949Z,4.80
2022-08-24T20:10:29.858Z,4.43
2022-08-24T20:12:57.793Z,4.53
2022-08-24T20:15:26.297Z,4.68
2022-08-24T20:17:57.517Z,4.70
2022-08-24T20:20:28.809Z,5.03
2022-08-24T20:22:57.132Z,4.07
2022-08-24T20:25:25.077Z,4.50
2022-08-24T20:28:06.854Z,4.53
2022-08-24T20:30:42.953Z,4.63
2022-08-24T20:33:15.529Z,4.15
2022-08-24T20:35:45.761Z,4.70
2022-08-24T20:38:16.800Z,4.07
2022-08-24T20:40:44.894Z,4.70
2022-08-24T20:43:12.968Z,5.55
2022-08-24T20:45:41.331Z,4.57
2022-08-24T20:48:12.014Z,4.43
2022-08-24T20:50:43.380Z,4.40
2022-08-24T20:53:14.556Z,3.90
2022-08-24T20:55:43.140Z,4.60
2022-08-24T20:58:11.786Z,4.30
2022-08-24T21:00:41.034Z,4.25
2022-08-24T21:03:09.037Z,4.20
2022-08-24T21:05:37.176Z,4.13
2022-08-24T21:08:06.206Z,3.95
2022-08-24T21:10:35.503Z,4.30
2022-08-24T21:13:05.318Z,4.03
2022-08-24T21:15:34.373Z,3.83
2022-08-24T21:18:02.965Z,4.63
2022-08-24T21:20:31.471Z,4.25
2022-08-24T21:22:59.408Z,4.40
2022-08-24T21:25:27.448Z,4.53
2022-08-24T21:28:00.162Z,3.55
2022-08-24T21:30:28.484Z,3.92
2022-08-24T21:33:14.384Z,3.60
2022-08-24T21:35:42.745Z,3.85
2022-08-24T21:38:12.169Z,3.92
2022-08-24T21:40:40.302Z,3.85
2022-08-24T21:43:14.873Z,3.95
2022-08-24T21:45:45.853Z,4.28
2022-08-24T21:48:14.496Z,3.72
2022-08-24T21:50:42.461Z,3.47
2022-08-24T21:53:10.498Z,4.22
2022-08-24T21:55:40.497Z,4.15
2022-08-24T21:58:10.321Z,3.90
2022-08-24T22:00:39.049Z,4.18
2022-08-24T22:03:08.551Z,4.82
2022-08-24T22:05:37.335Z,4.00
2022-08-24T22:08:05.898Z,4.18
2022-08-24T22:10:33.952Z,3.90
2022-08-24T22:13:04.336Z,4.85
2022-08-24T22:15:34.060Z,3.88
2022-08-24T22:18:02.362Z,5.00
2022-08-24T22:20:30.522Z,3.88
2022-08-24T22:22:59.294Z,4.10
2022-08-24T22:25:27.343Z,4.15
2022-08-24T22:27:55.245Z,4.03
2022-08-24T22:30:23.272Z,3.72
2022-08-24T22:32:52.695Z,4.20
2022-08-24T22:35:20.884Z,4.35
2022-08-24T22:37:48.828Z,4.22
2022-08-24T22:40:17.382Z,4.30
2022-08-24T22:42:46.941Z,3.75
2022-08-24T22:45:15.648Z,4.18
2022-08-24T22:47:43.628Z,4.65
2022-08-24T22:50:13.050Z,3.92
2022-08-24T22:52:41.005Z,4.65
2022-08-24T22:55:10.162Z,4.25
2022-08-24T22:57:38.114Z,4.00
2022-08-24T23:00:08.823Z,4.57
2022-08-24T23:02:37.418Z,4.32
2022-08-24T23:05:06.205Z,4.53
2022-08-24T23:07:35.586Z,4.78
2022-08-24T23:10:03.892Z,4.78
2022-08-24T23:12:32.259Z,4.63
2022-08-24T23:15:00.347Z,4.80
2022-08-24T23:17:28.250Z,4.28
2022-08-24T23:20:01.276Z,4.95
2022-08-24T23:25:01.385Z,4.00
2022-08-24T23:27:37.860Z,4.30
2022-08-24T23:30:11.060Z,5.10
2022-08-24T23:32:39.950Z,5.15
2022-08-24T23:35:08.616Z,4.85
2022-08-24T23:37:36.629Z,5.18
2022-08-24T23:40:07.323Z,5.10
2022-08-24T23:42:35.445Z,4.50
2022-08-24T23:45:03.458Z,4.75
2022-08-24T23:47:35.793Z,4.55
2022-08-24T23:50:06.886Z,4.78
2022-08-24T23:52:39.634Z,4.60
2022-08-24T23:55:21.229Z,4.75
2022-08-24T23:57:51.097Z,4.93
